createdAt,value
2022-08-17T00:06:53.976Z,99665.09
2022-08-17T00:16:56.796Z,99663.19
2022-08-17T00:26:59.526Z,99676.34
2022-08-17T00:37:00.909Z,99664.59
2022-08-17T00:47:02.306Z,99670.09
2022-08-17T00:57:03.692Z,99674.47
2022-08-17T01:07:05.019Z,99667.16
2022-08-17T01:17:06.361Z,99654.44
2022-08-17T01:27:10.534Z,99655.25
2022-08-17T01:37:12.144Z,99654.69
2022-08-17T01:47:13.487Z,99659.72
2022-08-17T01:57:14.825Z,99663.53
2022-08-17T02:07:17.226Z,99660.72
2022-08-17T02:17:18.959Z,99656.50
2022-08-17T02:27:20.288Z,99655.16
2022-08-17T02:37:21.635Z,99644.44
2022-08-17T02:47:22.952Z,99645.59
2022-08-17T02:57:24.324Z,99653.84
2022-08-17T03:07:25.631Z,99657.91
2022-08-17T03:17:26.967Z,99713.28
2022-08-17T03:27:28.300Z,99713.09
2022-08-17T03:37:29.630Z,99732.25
2022-08-17T03:47:49.577Z,99725.41
2022-08-17T03:57:50.896Z,99727.84
2022-08-17T04:07:54.312Z,99726.19
2022-08-17T04:17:55.760Z,99727.31
2022-08-17T04:27:57.333Z,99755.47
2022-08-17T04:37:58.724Z,99755.75
2022-08-17T04:48:00.115Z,99758.97
2022-08-17T04:58:01.465Z,99765.72
2022-08-17T05:08:02.797Z,99775.78
2022-08-17T05:18:04.153Z,99759.94
2022-08-17T05:28:05.427Z,99766.88
2022-08-17T05:38:08.218Z,99749.91
2022-08-17T05:48:10.334Z,99760.25
2022-08-17T05:58:11.694Z,99762.97
2022-08-17T06:08:13.036Z,99742.31
2022-08-17T06:18:18.930Z,99775.69
2022-08-17T06:28:20.531Z,99753.59
2022-08-17T06:38:37.767Z,99750.50
2022-08-17T06:48:40.096Z,99781.78
2022-08-17T06:58:41.455Z,99780.72
2022-08-17T07:08:43.648Z,99760.84
2022-08-17T07:18:44.944Z,99764.66
2022-08-17T07:28:46.284Z,99781.88
2022-08-17T07:38:48.548Z,99763.91
2022-08-17T07:48:49.924Z,99784.44
2022-08-17T07:58:51.250Z,99776.69
2022-08-17T08:08:52.620Z,99779.56
2022-08-17T08:18:56.723Z,99770.13
2022-08-17T08:29:00.413Z,99771.81
2022-08-17T08:39:01.851Z,99738.25
2022-08-17T08:49:09.983Z,99820.63
2022-08-17T08:59:13.893Z,99830.59
2022-08-17T09:09:15.273Z,99827.38
2022-08-17T09:19:16.533Z,99841.47
2022-08-17T09:29:17.877Z,99856.88
2022-08-17T09:39:19.162Z,99838.88
2022-08-17T09:49:25.019Z,99898.25
2022-08-17T09:59:27.547Z,99912.19
2022-08-17T10:09:38.439Z,99920.78
2022-08-17T10:19:39.856Z,99924.41
2022-08-17T10:29:48.910Z,99935.97
2022-08-17T10:39:52.537Z,99948.03
2022-08-17T10:49:56.010Z,99942.06
2022-08-17T10:59:57.360Z,99942.72
2022-08-17T11:09:58.735Z,99942.84
2022-08-17T11:20:00.099Z,99949.81
2022-08-17T11:30:02.494Z,99934.66
2022-08-17T11:40:05.596Z,99925.66
2022-08-17T11:50:28.040Z,99912.28
2022-08-17T12:00:30.172Z,99877.25
2022-08-17T12:10:34.309Z,99842.88
2022-08-17T12:20:35.675Z,99848.19
2022-08-17T12:30:37.025Z,99883.47
2022-08-17T12:40:38.365Z,99886.41
2022-08-17T12:50:39.708Z,99871.50
2022-08-17T13:00:41.302Z,99860.28
2022-08-17T13:10:48.881Z,99844.81
2022-08-17T13:20:54.104Z,99838.84
2022-08-17T13:30:55.453Z,99832.41
2022-08-17T13:40:56.793Z,99807.19
2022-08-17T13:50:58.143Z,99796.06
2022-08-17T14:01:03.421Z,99772.44
2022-08-17T14:11:13.961Z,99770.50
2022-08-17T14:21:15.395Z,99750.19
2022-08-17T14:31:16.747Z,99748.19
2022-08-17T14:41:22.060Z,99750.28
2022-08-17T14:51:23.685Z,99750.75
2022-08-17T15:01:25.086Z,99750.94
2022-08-17T15:11:26.440Z,99746.75
2022-08-17T15:21:27.773Z,99733.56
2022-08-17T15:31:31.646Z,99732.41
2022-08-17T15:41:33.852Z,99731.22
2022-08-17T15:51:35.264Z,99727.66
2022-08-17T16:02:21.575Z,99725.66
2022-08-17T16:22:43.873Z,99726.50
2022-08-17T16:32:45.267Z,99734.78
2022-08-17T16:42:48.437Z,99733.47
2022-08-17T16:52:50.067Z,99709.19
2022-08-17T17:03:06.464Z,99688.50
2022-08-17T17:13:21.399Z,99703.94
2022-08-17T17:23:22.650Z,99694.19
2022-08-17T17:33:24.068Z,99692.91
2022-08-17T17:43:38.946Z,99678.34
2022-08-17T17:53:43.523Z,99680.41
2022-08-17T18:03:45.055Z,99684.50
2022-08-17T18:13:46.471Z,99684.69
2022-08-17T18:23:50.908Z,99689.47
2022-08-17T18:33:52.457Z,99698.31
2022-08-17T18:43:54.065Z,99705.56
2022-08-17T18:53:55.451Z,99706.63
2022-08-17T19:03:58.862Z,99733.53
2022-08-17T19:14:00.983Z,99746.19
2022-08-17T19:24:02.284Z,99742.88
2022-08-17T19:34:03.657Z,99763.63
2022-08-17T19:44:06.968Z,99753.13
2022-08-17T19:54:08.295Z,99764.94
2022-08-17T20:04:09.673Z,99747.56
2022-08-17T20:14:11.020Z,99740.31
2022-08-17T20:24:12.351Z,99762.16
2022-08-17T20:34:13.689Z,99770.09
2022-08-17T20:44:14.976Z,99768.59
2022-08-17T20:54:16.380Z,99774.72
2022-08-17T21:04:17.697Z,99780.97
2022-08-17T21:14:19.026Z,99780.94
2022-08-17T21:24:21.483Z,99796.50
2022-08-17T21:34:22.839Z,99830.03
2022-08-17T21:44:30.566Z,99843.34
2022-08-17T21:54:34.038Z,99841.25
2022-08-17T22:04:35.352Z,99863.09
2022-08-17T22:14:52.667Z,99871.44
2022-08-17T22:24:57.521Z,99891.19
2022-08-17T22:34:59.092Z,99936.00
2022-08-17T22:45:00.344Z,99955.56
2022-08-17T22:55:20.290Z,99979.63
2022-08-17T23:05:21.708Z,99989.28
2022-08-17T23:15:24.386Z,99991.81
2022-08-17T23:25:25.877Z,99986.94
2022-08-17T23:35:39.249Z,99975.53
2022-08-17T23:45:41.992Z,99966.84
2022-08-17T23:55:43.410Z,99966.72
